sensor_id;sensor_type;location;lat;lon;timestamp;P1;P2;P0
67892;PMS7003;54688;52.376;16.744;2023-07-16T00:02:31;11;10;
67892;PMS7003;54688;52.376;16.744;2023-07-16T00:05:36;13;10;
67892;PMS7003;54688;52.376;16.744;2023-07-16T00:08:38;13;11;
67892;PMS7003;54688;52.376;16.744;2023-07-16T00:11:40;14;12;
67892;PMS7003;54688;52.376;16.744;2023-07-16T00:14:42;12;9;
67892;PMS7003;54688;52.376;16.744;2023-07-16T00:17:44;13;10;
67892;PMS7003;54688;52.376;16.744;2023-07-16T00:20:46;11;11;
67892;PMS7003;54688;52.376;16.744;2023-07-16T00:23:48;17;12;
67892;PMS7003;54688;52.376;16.744;2023-07-16T00:26:49;11;8;
67892;PMS7003;54688;52.376;16.744;2023-07-16T00:29:51;10;10;
67892;PMS7003;54688;52.376;16.744;2023-07-16T00:32:53;15;11;
67892;PMS7003;54688;52.376;16.744;2023-07-16T00:35:55;12;12;
67892;PMS7003;54688;52.376;16.744;2023-07-16T00:38:56;9;9;
67892;PMS7003;54688;52.376;16.744;2023-07-16T00:41:58;9;9;
67892;PMS7003;54688;52.376;16.744;2023-07-16T00:45:02;11;10;
67892;PMS7003;54688;52.376;16.744;2023-07-16T00:48:06;9;9;
67892;PMS7003;54688;52.376;16.744;2023-07-16T00:51:08;12;9;
67892;PMS7003;54688;52.376;16.744;2023-07-16T00:54:11;11;8;
67892;PMS7003;54688;52.376;16.744;2023-07-16T00:57:13;12;11;
67892;PMS7003;54688;52.376;16.744;2023-07-16T01:00:15;14;11;
67892;PMS7003;54688;52.376;16.744;2023-07-16T01:03:18;12;12;
67892;PMS7003;54688;52.376;16.744;2023-07-16T01:06:22;13;12;
67892;PMS7003;54688;52.376;16.744;2023-07-16T01:09:26;11;11;
67892;PMS7003;54688;52.376;16.744;2023-07-16T01:12:29;14;12;
67892;PMS7003;54688;52.376;16.744;2023-07-16T01:15:31;13;12;
67892;PMS7003;54688;52.376;16.744;2023-07-16T01:18:33;13;11;
67892;PMS7003;54688;52.376;16.744;2023-07-16T01:21:55;14;10;
67892;PMS7003;54688;52.376;16.744;2023-07-16T01:25:09;13;12;
67892;PMS7003;54688;52.376;16.744;2023-07-16T01:28:22;11;11;
67892;PMS7003;54688;52.376;16.744;2023-07-16T01:31:28;13;11;
67892;PMS7003;54688;52.376;16.744;2023-07-16T01:34:32;11;8;
67892;PMS7003;54688;52.376;16.744;2023-07-16T01:37:35;12;11;
67892;PMS7003;54688;52.376;16.744;2023-07-16T01:40:37;12;11;
67892;PMS7003;54688;52.376;16.744;2023-07-16T01:43:39;12;12;
67892;PMS7003;54688;52.376;16.744;2023-07-16T01:46:41;11;11;
67892;PMS7003;54688;52.376;16.744;2023-07-16T01:49:43;13;10;
67892;PMS7003;54688;52.376;16.744;2023-07-16T01:52:45;9;9;
67892;PMS7003;54688;52.376;16.744;2023-07-16T01:55:46;11;11;
67892;PMS7003;54688;52.376;16.744;2023-07-16T01:58:50;12;11;
67892;PMS7003;54688;52.376;16.744;2023-07-16T02:01:52;13;10;
67892;PMS7003;54688;52.376;16.744;2023-07-16T02:04:54;12;12;
67892;PMS7003;54688;52.376;16.744;2023-07-16T02:07:57;7;7;
67892;PMS7003;54688;52.376;16.744;2023-07-16T02:10:59;12;10;
67892;PMS7003;54688;52.376;16.744;2023-07-16T02:14:02;12;11;
67892;PMS7003;54688;52.376;16.744;2023-07-16T02:17:04;13;12;
67892;PMS7003;54688;52.376;16.744;2023-07-16T02:20:09;13;12;
67892;PMS7003;54688;52.376;16.744;2023-07-16T02:23:11;12;9;
67892;PMS7003;54688;52.376;16.744;2023-07-16T02:26:13;9;9;
67892;PMS7003;54688;52.376;16.744;2023-07-16T02:29:15;12;11;
67892;PMS7003;54688;52.376;16.744;2023-07-16T02:32:16;11;11;
67892;PMS7003;54688;52.376;16.744;2023-07-16T02:35:18;13;13;
67892;PMS7003;54688;52.376;16.744;2023-07-16T02:38:20;13;12;
67892;PMS7003;54688;52.376;16.744;2023-07-16T02:41:22;12;10;
67892;PMS7003;54688;52.376;16.744;2023-07-16T02:44:24;14;14;
67892;PMS7003;54688;52.376;16.744;2023-07-16T02:47:25;13;10;
67892;PMS7003;54688;52.376;16.744;2023-07-16T02:50:28;10;10;
67892;PMS7003;54688;52.376;16.744;2023-07-16T02:53:30;15;13;
67892;PMS7003;54688;52.376;16.744;2023-07-16T02:56:31;11;11;
67892;PMS7003;54688;52.376;16.744;2023-07-16T02:59:33;14;13;
67892;PMS7003;54688;52.376;16.744;2023-07-16T03:02:35;14;13;
67892;PMS7003;54688;52.376;16.744;2023-07-16T03:05:38;12;11;
67892;PMS7003;54688;52.376;16.744;2023-07-16T03:08:40;14;12;
67892;PMS7003;54688;52.376;16.744;2023-07-16T03:11:42;12;12;
67892;PMS7003;54688;52.376;16.744;2023-07-16T03:14:44;14;13;
67892;PMS7003;54688;52.376;16.744;2023-07-16T03:17:46;14;12;
67892;PMS7003;54688;52.376;16.744;2023-07-16T03:20:48;13;11;
67892;PMS7003;54688;52.376;16.744;2023-07-16T03:23:50;12;12;
67892;PMS7003;54688;52.376;16.744;2023-07-16T03:26:52;17;13;
67892;PMS7003;54688;52.376;16.744;2023-07-16T03:29:55;14;13;
67892;PMS7003;54688;52.376;16.744;2023-07-16T03:32:57;17;15;
67892;PMS7003;54688;52.376;16.744;2023-07-16T03:35:58;12;12;
67892;PMS7003;54688;52.376;16.744;2023-07-16T03:39:00;17;15;
67892;PMS7003;54688;52.376;16.744;2023-07-16T03:42:03;14;12;
67892;PMS7003;54688;52.376;16.744;2023-07-16T03:45:05;14;12;
67892;PMS7003;54688;52.376;16.744;2023-07-16T03:48:08;20;16;
67892;PMS7003;54688;52.376;16.744;2023-07-16T03:51:10;14;14;
67892;PMS7003;54688;52.376;16.744;2023-07-16T03:54:12;14;14;
67892;PMS7003;54688;52.376;16.744;2023-07-16T03:57:14;16;14;
67892;PMS7003;54688;52.376;16.744;2023-07-16T04:00:16;18;16;
67892;PMS7003;54688;52.376;16.744;2023-07-16T04:03:18;16;13;
67892;PMS7003;54688;52.376;16.744;2023-07-16T04:06:20;17;15;
67892;PMS7003;54688;52.376;16.744;2023-07-16T04:09:22;14;13;
67892;PMS7003;54688;52.376;16.744;2023-07-16T04:12:24;14;13;
67892;PMS7003;54688;52.376;16.744;2023-07-16T04:15:26;14;14;
67892;PMS7003;54688;52.376;16.744;2023-07-16T04:18:29;13;12;
67892;PMS7003;54688;52.376;16.744;2023-07-16T04:21:31;10;9;
67892;PMS7003;54688;52.376;16.744;2023-07-16T04:24:33;13;12;
67892;PMS7003;54688;52.376;16.744;2023-07-16T04:27:35;16;15;
67892;PMS7003;54688;52.376;16.744;2023-07-16T04:30:37;14;13;
67892;PMS7003;54688;52.376;16.744;2023-07-16T04:33:39;9;9;
67892;PMS7003;54688;52.376;16.744;2023-07-16T04:36:42;14;12;
67892;PMS7003;54688;52.376;16.744;2023-07-16T04:39:44;14;11;
67892;PMS7003;54688;52.376;16.744;2023-07-16T04:42:46;17;15;
67892;PMS7003;54688;52.376;16.744;2023-07-16T04:45:49;12;10;
67892;PMS7003;54688;52.376;16.744;2023-07-16T04:48:50;10;9;
67892;PMS7003;54688;52.376;16.744;2023-07-16T04:51:53;11;11;
67892;PMS7003;54688;52.376;16.744;2023-07-16T04:54:55;13;10;
67892;PMS7003;54688;52.376;16.744;2023-07-16T04:57:57;10;10;
67892;PMS7003;54688;52.376;16.744;2023-07-16T05:00:59;8;8;
67892;PMS7003;54688;52.376;16.744;2023-07-16T05:04:02;8;8;
67892;PMS7003;54688;52.376;16.744;2023-07-16T05:07:04;6;6;
67892;PMS7003;54688;52.376;16.744;2023-07-16T05:10:08;8;7;
67892;PMS7003;54688;52.376;16.744;2023-07-16T05:13:10;7;7;
67892;PMS7003;54688;52.376;16.744;2023-07-16T05:16:12;6;6;
67892;PMS7003;54688;52.376;16.744;2023-07-16T05:19:15;6;6;
67892;PMS7003;54688;52.376;16.744;2023-07-16T05:22:17;8;6;
67892;PMS7003;54688;52.376;16.744;2023-07-16T05:25:20;10;7;
67892;PMS7003;54688;52.376;16.744;2023-07-16T05:28:24;6;6;
67892;PMS7003;54688;52.376;16.744;2023-07-16T05:31:27;8;8;
67892;PMS7003;54688;52.376;16.744;2023-07-16T05:34:29;4;4;
67892;PMS7003;54688;52.376;16.744;2023-07-16T05:37:31;5;5;
67892;PMS7003;54688;52.376;16.744;2023-07-16T05:40:34;6;4;
67892;PMS7003;54688;52.376;16.744;2023-07-16T05:43:36;5;5;
67892;PMS7003;54688;52.376;16.744;2023-07-16T05:46:38;5;5;
67892;PMS7003;54688;52.376;16.744;2023-07-16T05:49:40;6;4;
67892;PMS7003;54688;52.376;16.744;2023-07-16T05:52:42;3;3;
67892;PMS7003;54688;52.376;16.744;2023-07-16T05:55:44;8;5;
67892;PMS7003;54688;52.376;16.744;2023-07-16T05:58:46;5;5;
67892;PMS7003;54688;52.376;16.744;2023-07-16T06:01:49;5;5;
67892;PMS7003;54688;52.376;16.744;2023-07-16T06:04:51;4;3;
67892;PMS7003;54688;52.376;16.744;2023-07-16T06:07:53;4;2;
67892;PMS7003;54688;52.376;16.744;2023-07-16T06:10:55;5;4;
67892;PMS7003;54688;52.376;16.744;2023-07-16T06:13:57;4;3;
67892;PMS7003;54688;52.376;16.744;2023-07-16T06:16:59;4;2;
67892;PMS7003;54688;52.376;16.744;2023-07-16T06:20:03;4;2;
67892;PMS7003;54688;52.376;16.744;2023-07-16T06:23:05;3;3;
67892;PMS7003;54688;52.376;16.744;2023-07-16T06:26:07;3;3;
67892;PMS7003;54688;52.376;16.744;2023-07-16T06:29:10;2;2;
67892;PMS7003;54688;52.376;16.744;2023-07-16T06:32:12;2;2;
67892;PMS7003;54688;52.376;16.744;2023-07-16T06:35:15;2;2;
67892;PMS7003;54688;52.376;16.744;2023-07-16T06:38:17;2;2;
67892;PMS7003;54688;52.376;16.744;2023-07-16T06:41:20;4;4;
67892;PMS7003;54688;52.376;16.744;2023-07-16T06:44:22;2;2;
67892;PMS7003;54688;52.376;16.744;2023-07-16T06:47:24;2;2;
67892;PMS7003;54688;52.376;16.744;2023-07-16T06:50:26;2;2;
67892;PMS7003;54688;52.376;16.744;2023-07-16T06:53:29;3;3;
67892;PMS7003;54688;52.376;16.744;2023-07-16T06:56:31;1;1;
67892;PMS7003;54688;52.376;16.744;2023-07-16T06:59:33;2;1;
67892;PMS7003;54688;52.376;16.744;2023-07-16T07:02:35;3;3;
67892;PMS7003;54688;52.376;16.744;2023-07-16T07:05:40;4;3;
67892;PMS7003;54688;52.376;16.744;2023-07-16T07:08:42;3;3;
67892;PMS7003;54688;52.376;16.744;2023-07-16T07:11:44;3;3;
67892;PMS7003;54688;52.376;16.744;2023-07-16T07:14:46;7;4;
67892;PMS7003;54688;52.376;16.744;2023-07-16T07:17:48;3;3;
67892;PMS7003;54688;52.376;16.744;2023-07-16T07:20:51;3;3;
67892;PMS7003;54688;52.376;16.744;2023-07-16T07:23:53;3;3;
67892;PMS7003;54688;52.376;16.744;2023-07-16T07:26:55;4;2;
67892;PMS7003;54688;52.376;16.744;2023-07-16T07:29:58;4;3;
67892;PMS7003;54688;52.376;16.744;2023-07-16T07:33:00;3;3;
67892;PMS7003;54688;52.376;16.744;2023-07-16T07:36:02;2;2;
67892;PMS7003;54688;52.376;16.744;2023-07-16T07:39:04;3;3;
67892;PMS7003;54688;52.376;16.744;2023-07-16T07:42:06;5;5;
67892;PMS7003;54688;52.376;16.744;2023-07-16T07:45:09;5;4;
67892;PMS7003;54688;52.376;16.744;2023-07-16T07:48:12;3;3;
67892;PMS7003;54688;52.376;16.744;2023-07-16T07:51:14;4;4;
67892;PMS7003;54688;52.376;16.744;2023-07-16T07:54:17;4;4;
67892;PMS7003;54688;52.376;16.744;2023-07-16T07:57:19;5;5;
67892;PMS7003;54688;52.376;16.744;2023-07-16T08:00:21;6;5;
67892;PMS7003;54688;52.376;16.744;2023-07-16T08:03:24;5;5;
67892;PMS7003;54688;52.376;16.744;2023-07-16T08:06:26;5;5;
67892;PMS7003;54688;52.376;16.744;2023-07-16T08:09:29;5;4;
67892;PMS7003;54688;52.376;16.744;2023-07-16T08:12:31;7;4;
67892;PMS7003;54688;52.376;16.744;2023-07-16T08:15:33;4;4;
67892;PMS7003;54688;52.376;16.744;2023-07-16T08:18:35;4;4;
67892;PMS7003;54688;52.376;16.744;2023-07-16T08:21:37;3;3;
67892;PMS7003;54688;52.376;16.744;2023-07-16T08:24:39;6;5;
67892;PMS7003;54688;52.376;16.744;2023-07-16T08:27:41;5;5;
67892;PMS7003;54688;52.376;16.744;2023-07-16T08:30:46;5;5;
67892;PMS7003;54688;52.376;16.744;2023-07-16T08:33:48;5;5;
67892;PMS7003;54688;52.376;16.744;2023-07-16T08:36:50;3;3;
67892;PMS7003;54688;52.376;16.744;2023-07-16T08:39:52;8;5;
67892;PMS7003;54688;52.376;16.744;2023-07-16T08:42:56;4;4;
67892;PMS7003;54688;52.376;16.744;2023-07-16T08:46:00;6;5;
67892;PMS7003;54688;52.376;16.744;2023-07-16T08:49:05;4;3;
67892;PMS7003;54688;52.376;16.744;2023-07-16T08:52:07;5;5;
67892;PMS7003;54688;52.376;16.744;2023-07-16T08:55:10;4;4;
67892;PMS7003;54688;52.376;16.744;2023-07-16T08:58:13;4;4;
67892;PMS7003;54688;52.376;16.744;2023-07-16T09:01:16;5;4;
67892;PMS7003;54688;52.376;16.744;2023-07-16T09:04:18;6;5;
67892;PMS7003;54688;52.376;16.744;2023-07-16T09:07:20;6;6;
67892;PMS7003;54688;52.376;16.744;2023-07-16T09:10:21;5;4;
67892;PMS7003;54688;52.376;16.744;2023-07-16T09:13:24;5;3;
67892;PMS7003;54688;52.376;16.744;2023-07-16T09:16:26;6;5;
67892;PMS7003;54688;52.376;16.744;2023-07-16T09:19:31;5;4;
67892;PMS7003;54688;52.376;16.744;2023-07-16T09:22:34;5;5;
67892;PMS7003;54688;52.376;16.744;2023-07-16T09:25:36;5;5;
67892;PMS7003;54688;52.376;16.744;2023-07-16T09:28:38;6;5;
67892;PMS7003;54688;52.376;16.744;2023-07-16T09:31:52;4;3;
67892;PMS7003;54688;52.376;16.744;2023-07-16T09:34:54;4;4;
67892;PMS7003;54688;52.376;16.744;2023-07-16T09:37:57;5;3;
67892;PMS7003;54688;52.376;16.744;2023-07-16T09:40:59;2;2;
67892;PMS7003;54688;52.376;16.744;2023-07-16T09:44:02;3;3;
67892;PMS7003;54688;52.376;16.744;2023-07-16T09:47:04;6;2;
67892;PMS7003;54688;52.376;16.744;2023-07-16T09:50:06;3;3;
67892;PMS7003;54688;52.376;16.744;2023-07-16T09:53:08;2;2;
67892;PMS7003;54688;52.376;16.744;2023-07-16T09:56:12;3;3;
67892;PMS7003;54688;52.376;16.744;2023-07-16T09:59:18;4;4;
67892;PMS7003;54688;52.376;16.744;2023-07-16T10:02:22;5;3;
67892;PMS7003;54688;52.376;16.744;2023-07-16T10:05:26;3;3;
67892;PMS7003;54688;52.376;16.744;2023-07-16T10:08:33;5;4;
67892;PMS7003;54688;52.376;16.744;2023-07-16T10:11:37;3;3;
67892;PMS7003;54688;52.376;16.744;2023-07-16T10:14:40;3;3;
67892;PMS7003;54688;52.376;16.744;2023-07-16T10:17:49;3;1;
67892;PMS7003;54688;52.376;16.744;2023-07-16T10:20:52;5;2;
67892;PMS7003;54688;52.376;16.744;2023-07-16T10:23:58;2;2;
67892;PMS7003;54688;52.376;16.744;2023-07-16T10:27:00;3;3;
67892;PMS7003;54688;52.376;16.744;2023-07-16T10:30:04;3;3;
67892;PMS7003;54688;52.376;16.744;2023-07-16T10:33:11;3;3;
67892;PMS7003;54688;52.376;16.744;2023-07-16T10:36:17;5;4;
67892;PMS7003;54688;52.376;16.744;2023-07-16T10:39:20;3;3;
67892;PMS7003;54688;52.376;16.744;2023-07-16T10:42:24;6;5;
67892;PMS7003;54688;52.376;16.744;2023-07-16T10:45:28;3;3;
67892;PMS7003;54688;52.376;16.744;2023-07-16T10:48:30;3;3;
67892;PMS7003;54688;52.376;16.744;2023-07-16T10:51:32;5;5;
67892;PMS7003;54688;52.376;16.744;2023-07-16T10:54:34;3;3;
67892;PMS7003;54688;52.376;16.744;2023-07-16T10:57:36;5;2;
67892;PMS7003;54688;52.376;16.744;2023-07-16T11:00:39;2;2;
67892;PMS7003;54688;52.376;16.744;2023-07-16T11:03:41;3;3;
67892;PMS7003;54688;52.376;16.744;2023-07-16T11:06:44;3;2;
67892;PMS7003;54688;52.376;16.744;2023-07-16T11:09:47;5;4;
67892;PMS7003;54688;52.376;16.744;2023-07-16T11:12:51;3;3;
67892;PMS7003;54688;52.376;16.744;2023-07-16T11:15:53;4;3;
67892;PMS7003;54688;52.376;16.744;2023-07-16T11:18:56;3;3;
67892;PMS7003;54688;52.376;16.744;2023-07-16T11:21:58;4;4;
67892;PMS7003;54688;52.376;16.744;2023-07-16T11:25:01;3;3;
67892;PMS7003;54688;52.376;16.744;2023-07-16T11:28:03;6;6;
67892;PMS7003;54688;52.376;16.744;2023-07-16T11:31:14;3;3;
67892;PMS7003;54688;52.376;16.744;2023-07-16T11:34:16;4;4;
67892;PMS7003;54688;52.376;16.744;2023-07-16T11:37:18;3;3;
67892;PMS7003;54688;52.376;16.744;2023-07-16T11:40:20;3;3;
67892;PMS7003;54688;52.376;16.744;2023-07-16T11:43:22;4;4;
67892;PMS7003;54688;52.376;16.744;2023-07-16T11:46:24;4;4;
67892;PMS7003;54688;52.376;16.744;2023-07-16T11:49:27;2;2;
67892;PMS7003;54688;52.376;16.744;2023-07-16T11:52:29;2;2;
67892;PMS7003;54688;52.376;16.744;2023-07-16T11:58:30;4;3;
67892;PMS7003;54688;52.376;16.744;2023-07-16T12:01:32;4;3;
67892;PMS7003;54688;52.376;16.744;2023-07-16T12:04:34;4;4;
67892;PMS7003;54688;52.376;16.744;2023-07-16T12:07:37;4;2;
67892;PMS7003;54688;52.376;16.744;2023-07-16T12:10:39;4;4;
67892;PMS7003;54688;52.376;16.744;2023-07-16T12:13:42;5;3;
67892;PMS7003;54688;52.376;16.744;2023-07-16T12:16:44;5;3;
67892;PMS7003;54688;52.376;16.744;2023-07-16T12:22:46;2;2;
67892;PMS7003;54688;52.376;16.744;2023-07-16T12:25:49;5;3;
67892;PMS7003;54688;52.376;16.744;2023-07-16T12:28:52;4;4;
67892;PMS7003;54688;52.376;16.744;2023-07-16T12:31:54;4;3;
67892;PMS7003;54688;52.376;16.744;2023-07-16T12:34:56;4;3;
67892;PMS7003;54688;52.376;16.744;2023-07-16T12:37:58;3;3;
67892;PMS7003;54688;52.376;16.744;2023-07-16T12:41:00;5;4;
67892;PMS7003;54688;52.376;16.744;2023-07-16T12:44:03;4;4;
67892;PMS7003;54688;52.376;16.744;2023-07-16T12:47:05;1;1;
67892;PMS7003;54688;52.376;16.744;2023-07-16T12:50:08;3;3;
67892;PMS7003;54688;52.376;16.744;2023-07-16T12:53:10;5;4;
67892;PMS7003;54688;52.376;16.744;2023-07-16T12:56:12;3;3;
67892;PMS7003;54688;52.376;16.744;2023-07-16T12:59:15;4;3;
67892;PMS7003;54688;52.376;16.744;2023-07-16T13:02:17;2;2;
67892;PMS7003;54688;52.376;16.744;2023-07-16T13:05:19;6;4;
67892;PMS7003;54688;52.376;16.744;2023-07-16T13:08:22;4;3;
67892;PMS7003;54688;52.376;16.744;2023-07-16T13:11:25;2;2;
67892;PMS7003;54688;52.376;16.744;2023-07-16T13:14:27;5;3;
67892;PMS7003;54688;52.376;16.744;2023-07-16T13:17:29;2;1;
67892;PMS7003;54688;52.376;16.744;2023-07-16T13:20:32;3;3;
67892;PMS7003;54688;52.376;16.744;2023-07-16T13:23:34;3;3;
67892;PMS7003;54688;52.376;16.744;2023-07-16T13:26:36;4;4;
67892;PMS7003;54688;52.376;16.744;2023-07-16T13:29:39;5;5;
67892;PMS7003;54688;52.376;16.744;2023-07-16T13:32:41;3;3;
67892;PMS7003;54688;52.376;16.744;2023-07-16T13:35:43;2;2;
67892;PMS7003;54688;52.376;16.744;2023-07-16T13:38:45;4;3;
67892;PMS7003;54688;52.376;16.744;2023-07-16T13:41:47;3;3;
67892;PMS7003;54688;52.376;16.744;2023-07-16T13:44:50;4;3;
67892;PMS7003;54688;52.376;16.744;2023-07-16T13:47:52;6;4;
67892;PMS7003;54688;52.376;16.744;2023-07-16T13:50:55;4;4;
67892;PMS7003;54688;52.376;16.744;2023-07-16T13:53:57;6;6;
67892;PMS7003;54688;52.376;16.744;2023-07-16T13:56:59;3;3;
67892;PMS7003;54688;52.376;16.744;2023-07-16T14:00:04;7;5;
67892;PMS7003;54688;52.376;16.744;2023-07-16T14:03:06;6;6;
67892;PMS7003;54688;52.376;16.744;2023-07-16T14:06:07;2;2;
67892;PMS7003;54688;52.376;16.744;2023-07-16T14:09:10;2;2;
67892;PMS7003;54688;52.376;16.744;2023-07-16T14:12:11;4;3;
67892;PMS7003;54688;52.376;16.744;2023-07-16T14:15:13;2;2;
67892;PMS7003;54688;52.376;16.744;2023-07-16T14:18:15;3;3;
67892;PMS7003;54688;52.376;16.744;2023-07-16T14:21:16;2;2;
67892;PMS7003;54688;52.376;16.744;2023-07-16T14:24:19;3;3;
67892;PMS7003;54688;52.376;16.744;2023-07-16T14:27:21;3;3;
67892;PMS7003;54688;52.376;16.744;2023-07-16T14:30:23;3;3;
67892;PMS7003;54688;52.376;16.744;2023-07-16T14:33:26;5;2;
67892;PMS7003;54688;52.376;16.744;2023-07-16T14:36:28;2;2;
67892;PMS7003;54688;52.376;16.744;2023-07-16T14:39:30;2;2;
67892;PMS7003;54688;52.376;16.744;2023-07-16T14:42:33;2;2;
67892;PMS7003;54688;52.376;16.744;2023-07-16T14:45:35;2;2;
67892;PMS7003;54688;52.376;16.744;2023-07-16T14:48:37;2;2;
67892;PMS7003;54688;52.376;16.744;2023-07-16T14:51:40;2;2;
67892;PMS7003;54688;52.376;16.744;2023-07-16T14:54:42;2;2;
67892;PMS7003;54688;52.376;16.744;2023-07-16T14:57:44;4;2;
67892;PMS7003;54688;52.376;16.744;2023-07-16T15:00:47;1;1;
67892;PMS7003;54688;52.376;16.744;2023-07-16T15:03:49;2;2;
67892;PMS7003;54688;52.376;16.744;2023-07-16T15:06:52;3;3;
67892;PMS7003;54688;52.376;16.744;2023-07-16T15:12:53;3;3;
67892;PMS7003;54688;52.376;16.744;2023-07-16T15:15:55;1;1;
67892;PMS7003;54688;52.376;16.744;2023-07-16T15:18:57;1;1;
67892;PMS7003;54688;52.376;16.744;2023-07-16T15:22:00;1;1;
67892;PMS7003;54688;52.376;16.744;2023-07-16T15:28:01;3;2;
67892;PMS7003;54688;52.376;16.744;2023-07-16T15:31:04;1;1;
67892;PMS7003;54688;52.376;16.744;2023-07-16T15:34:06;2;1;
67892;PMS7003;54688;52.376;16.744;2023-07-16T15:37:08;1;1;
67892;PMS7003;54688;52.376;16.744;2023-07-16T15:40:13;1;1;
67892;PMS7003;54688;52.376;16.744;2023-07-16T15:43:15;4;0;
67892;PMS7003;54688;52.376;16.744;2023-07-16T15:46:18;1;1;
67892;PMS7003;54688;52.376;16.744;2023-07-16T15:49:20;2;1;
67892;PMS7003;54688;52.376;16.744;2023-07-16T15:52:22;1;1;
67892;PMS7003;54688;52.376;16.744;2023-07-16T15:55:24;2;1;
67892;PMS7003;54688;52.376;16.744;2023-07-16T15:58:26;1;1;
67892;PMS7003;54688;52.376;16.744;2023-07-16T16:01:29;1;1;
67892;PMS7003;54688;52.376;16.744;2023-07-16T16:04:31;4;1;
67892;PMS7003;54688;52.376;16.744;2023-07-16T16:07:33;1;1;
67892;PMS7003;54688;52.376;16.744;2023-07-16T16:10:35;2;2;
67892;PMS7003;54688;52.376;16.744;2023-07-16T16:13:38;2;0;
67892;PMS7003;54688;52.376;16.744;2023-07-16T16:16:40;1;1;
67892;PMS7003;54688;52.376;16.744;2023-07-16T16:19:42;1;1;
67892;PMS7003;54688;52.376;16.744;2023-07-16T16:22:44;1;1;
67892;PMS7003;54688;52.376;16.744;2023-07-16T16:25:47;2;2;
67892;PMS7003;54688;52.376;16.744;2023-07-16T16:28:50;2;1;
67892;PMS7003;54688;52.376;16.744;2023-07-16T16:31:51;1;1;
67892;PMS7003;54688;52.376;16.744;2023-07-16T16:34:54;2;2;
67892;PMS7003;54688;52.376;16.744;2023-07-16T16:37:56;1;1;
67892;PMS7003;54688;52.376;16.744;2023-07-16T16:41:01;3;1;
67892;PMS7003;54688;52.376;16.744;2023-07-16T16:44:03;4;2;
67892;PMS7003;54688;52.376;16.744;2023-07-16T16:47:06;3;2;
67892;PMS7003;54688;52.376;16.744;2023-07-16T16:50:09;4;4;
67892;PMS7003;54688;52.376;16.744;2023-07-16T16:53:12;3;2;
67892;PMS7003;54688;52.376;16.744;2023-07-16T16:59:13;2;1;
67892;PMS7003;54688;52.376;16.744;2023-07-16T17:02:16;3;2;
67892;PMS7003;54688;52.376;16.744;2023-07-16T17:08:18;1;1;
67892;PMS7003;54688;52.376;16.744;2023-07-16T17:11:20;3;1;
67892;PMS7003;54688;52.376;16.744;2023-07-16T17:14:22;2;1;
67892;PMS7003;54688;52.376;16.744;2023-07-16T17:17:25;4;1;
67892;PMS7003;54688;52.376;16.744;2023-07-16T17:20:27;3;2;
67892;PMS7003;54688;52.376;16.744;2023-07-16T17:23:30;2;2;
67892;PMS7003;54688;52.376;16.744;2023-07-16T17:26:32;2;2;
67892;PMS7003;54688;52.376;16.744;2023-07-16T17:29:34;3;2;
67892;PMS7003;54688;52.376;16.744;2023-07-16T17:32:36;1;1;
67892;PMS7003;54688;52.376;16.744;2023-07-16T17:35:40;2;2;
67892;PMS7003;54688;52.376;16.744;2023-07-16T17:38:42;1;1;
67892;PMS7003;54688;52.376;16.744;2023-07-16T17:41:44;1;1;
67892;PMS7003;54688;52.376;16.744;2023-07-16T17:44:47;1;1;
67892;PMS7003;54688;52.376;16.744;2023-07-16T17:47:49;4;2;
67892;PMS7003;54688;52.376;16.744;2023-07-16T17:50:52;2;2;
67892;PMS7003;54688;52.376;16.744;2023-07-16T17:53:54;2;2;
67892;PMS7003;54688;52.376;16.744;2023-07-16T17:56:56;2;1;
67892;PMS7003;54688;52.376;16.744;2023-07-16T17:59:59;3;1;
67892;PMS7003;54688;52.376;16.744;2023-07-16T18:03:01;4;2;
67892;PMS7003;54688;52.376;16.744;2023-07-16T18:06:03;2;2;
67892;PMS7003;54688;52.376;16.744;2023-07-16T18:09:06;2;2;
67892;PMS7003;54688;52.376;16.744;2023-07-16T18:12:08;4;2;
67892;PMS7003;54688;52.376;16.744;2023-07-16T18:15:11;2;2;
67892;PMS7003;54688;52.376;16.744;2023-07-16T18:18:13;2;2;
67892;PMS7003;54688;52.376;16.744;2023-07-16T18:21:15;4;3;
67892;PMS7003;54688;52.376;16.744;2023-07-16T18:24:18;3;3;
67892;PMS7003;54688;52.376;16.744;2023-07-16T18:27:20;4;3;
67892;PMS7003;54688;52.376;16.744;2023-07-16T18:30:22;4;2;
67892;PMS7003;54688;52.376;16.744;2023-07-16T18:33:25;4;4;
67892;PMS7003;54688;52.376;16.744;2023-07-16T18:36:27;2;2;
67892;PMS7003;54688;52.376;16.744;2023-07-16T18:39:30;3;2;
67892;PMS7003;54688;52.376;16.744;2023-07-16T18:42:32;3;2;
67892;PMS7003;54688;52.376;16.744;2023-07-16T18:45:34;3;3;
67892;PMS7003;54688;52.376;16.744;2023-07-16T18:48:37;2;2;
67892;PMS7003;54688;52.376;16.744;2023-07-16T18:51:39;3;3;
67892;PMS7003;54688;52.376;16.744;2023-07-16T18:54:41;2;2;
67892;PMS7003;54688;52.376;16.744;2023-07-16T18:57:43;6;3;
67892;PMS7003;54688;52.376;16.744;2023-07-16T19:00:47;5;3;
67892;PMS7003;54688;52.376;16.744;2023-07-16T19:03:49;5;4;
67892;PMS7003;54688;52.376;16.744;2023-07-16T19:09:51;3;3;
67892;PMS7003;54688;52.376;16.744;2023-07-16T19:15:53;6;4;
67892;PMS7003;54688;52.376;16.744;2023-07-16T19:18:56;5;4;
67892;PMS7003;54688;52.376;16.744;2023-07-16T19:21:58;3;3;
67892;PMS7003;54688;52.376;16.744;2023-07-16T19:25:01;6;5;
67892;PMS7003;54688;52.376;16.744;2023-07-16T19:28:03;4;4;
67892;PMS7003;54688;52.376;16.744;2023-07-16T19:31:06;5;4;
67892;PMS7003;54688;52.376;16.744;2023-07-16T19:34:10;8;4;
67892;PMS7003;54688;52.376;16.744;2023-07-16T19:37:11;7;4;
67892;PMS7003;54688;52.376;16.744;2023-07-16T19:40:14;6;5;
67892;PMS7003;54688;52.376;16.744;2023-07-16T19:43:17;5;4;
67892;PMS7003;54688;52.376;16.744;2023-07-16T19:46:19;4;4;
67892;PMS7003;54688;52.376;16.744;2023-07-16T19:49:21;3;3;
67892;PMS7003;54688;52.376;16.744;2023-07-16T19:52:24;8;5;
67892;PMS7003;54688;52.376;16.744;2023-07-16T19:55:27;7;5;
67892;PMS7003;54688;52.376;16.744;2023-07-16T19:58:30;5;4;
67892;PMS7003;54688;52.376;16.744;2023-07-16T20:01:31;6;4;
67892;PMS7003;54688;52.376;16.744;2023-07-16T20:04:34;6;5;
67892;PMS7003;54688;52.376;16.744;2023-07-16T20:07:36;5;5;
67892;PMS7003;54688;52.376;16.744;2023-07-16T20:10:38;9;5;
67892;PMS7003;54688;52.376;16.744;2023-07-16T20:13:41;5;5;
67892;PMS7003;54688;52.376;16.744;2023-07-16T20:16:43;4;4;
67892;PMS7003;54688;52.376;16.744;2023-07-16T20:19:46;6;5;
67892;PMS7003;54688;52.376;16.744;2023-07-16T20:22:49;3;3;
67892;PMS7003;54688;52.376;16.744;2023-07-16T20:25:51;8;6;
67892;PMS7003;54688;52.376;16.744;2023-07-16T20:28:53;9;7;
67892;PMS7003;54688;52.376;16.744;2023-07-16T20:31:55;7;6;
67892;PMS7003;54688;52.376;16.744;2023-07-16T20:34:58;9;7;
67892;PMS7003;54688;52.376;16.744;2023-07-16T20:38:00;7;7;
67892;PMS7003;54688;52.376;16.744;2023-07-16T20:41:02;8;8;
67892;PMS7003;54688;52.376;16.744;2023-07-16T20:44:04;9;6;
67892;PMS7003;54688;52.376;16.744;2023-07-16T20:47:06;8;5;